Time;durP1;ratioP1;P1;durP2;ratioP2;P2;SDS_P1;SDS_P2;PMS_P1;PMS_P2;Temp;Humidity;BMP_temperature;BMP_pressure;BME280_temperature;BME280_humidity;BME280_pressure;Samples;Min_cycle;Max_cycle;Signal;HPM_P1;HPM_P2
2023/05/12 00:00:35;;;;;;;5.70;2.70;;;;;;;;;;5011622;28;20030;-67
2023/05/12 00:03:02;;;;;;;5.68;2.35;;;;;;;;;;5013741;28;20588;-67
2023/05/12 00:05:28;;;;;;;5.22;2.30;;;;;;;;;;5014095;28;20030;-66
2023/05/12 00:07:53;;;;;;;5.97;2.50;;;;;;;;;;5014723;28;20026;-67
2023/05/12 00:10:18;;;;;;;5.00;2.53;;;;;;;;;;5011288;28;20548;-67
2023/05/12 00:12:43;;;;;;;5.17;2.20;;;;;;;;;;5012322;28;20022;-66
2023/05/12 00:15:09;;;;;;;5.45;2.75;;;;;;;;;;5014499;28;20041;-67
2023/05/12 00:17:34;;;;;;;5.97;2.53;;;;;;;;;;5013237;28;20034;-67
2023/05/12 00:19:59;;;;;;;7.10;2.70;;;;;;;;;;5014163;28;20443;-67
2023/05/12 00:22:25;;;;;;;6.10;2.38;;;;;;;;;;5011809;28;20053;-66
2023/05/12 00:24:50;;;;;;;5.47;2.42;;;;;;;;;;5013296;28;20553;-66
2023/05/12 00:27:15;;;;;;;4.88;2.45;;;;;;;;;;5009493;28;20101;-67
2023/05/12 00:29:41;;;;;;;5.65;2.50;;;;;;;;;;5003551;28;20018;-67
2023/05/12 00:32:07;;;;;;;4.65;2.33;;;;;;;;;;5008336;28;20073;-66
2023/05/12 00:34:32;;;;;;;5.65;2.65;;;;;;;;;;5005554;28;20061;-66
2023/05/12 00:36:57;;;;;;;5.72;2.55;;;;;;;;;;5012616;28;20061;-67
2023/05/12 00:39:22;;;;;;;5.57;2.60;;;;;;;;;;5012777;28;20500;-66
2023/05/12 00:41:49;;;;;;;4.72;2.20;;;;;;;;;;5011679;28;20124;-67
2023/05/12 00:44:14;;;;;;;5.45;2.30;;;;;;;;;;5011924;28;20444;-67
2023/05/12 00:46:39;;;;;;;5.70;2.33;;;;;;;;;;5016905;28;20018;-67
2023/05/12 00:49:06;;;;;;;5.25;2.42;;;;;;;;;;5013305;28;20469;-67
2023/05/12 00:51:31;;;;;;;5.90;2.40;;;;;;;;;;5011214;28;20080;-67
2023/05/12 00:53:57;;;;;;;5.75;2.35;;;;;;;;;;5013214;28;20066;-67
2023/05/12 00:56:22;;;;;;;5.13;2.50;;;;;;;;;;5012726;28;20790;-67
2023/05/12 00:58:47;;;;;;;6.60;2.40;;;;;;;;;;5010898;28;20381;-67
2023/05/12 01:01:12;;;;;;;5.55;2.35;;;;;;;;;;5011049;28;20460;-67
2023/05/12 01:03:37;;;;;;;5.30;2.30;;;;;;;;;;5012731;28;20366;-67
2023/05/12 01:06:07;;;;;;;5.03;2.50;;;;;;;;;;5012844;28;20017;-66
2023/05/12 01:08:33;;;;;;;6.72;2.58;;;;;;;;;;5011466;28;20014;-66
2023/05/12 01:10:58;;;;;;;5.70;2.70;;;;;;;;;;5010927;28;20025;-67
2023/05/12 01:13:25;;;;;;;8.27;2.67;;;;;;;;;;5012569;28;20714;-67
2023/05/12 01:15:50;;;;;;;;;;;;;;;;;;5010261;28;20092;-66
2023/05/12 01:18:16;;;;;;;6.30;3.00;;;;;;;;;;5012208;28;19914;-67
2023/05/12 01:20:42;;;;;;;5.03;2.58;;;;;;;;;;5011593;28;20097;-66
2023/05/12 01:23:07;;;;;;;;;;;;;;;;;;5012639;28;20028;-67
2023/05/12 01:25:33;;;;;;;5.35;2.72;;;;;;;;;;5012063;28;19913;-67
2023/05/12 01:27:58;;;;;;;5.43;2.87;;;;;;;;;;5006708;28;20032;-67
2023/05/12 01:30:24;;;;;;;5.68;2.90;;;;;;;;;;5007148;28;20530;-65
2023/05/12 01:32:50;;;;;;;6.40;2.60;;;;;;;;;;5001910;28;20040;-66
2023/05/12 01:35:15;;;;;;;6.35;3.00;;;;;;;;;;5008923;28;20030;-67
2023/05/12 01:37:40;;;;;;;6.95;2.90;;;;;;;;;;5012703;28;20409;-67
2023/05/12 01:40:06;;;;;;;7.33;3.07;;;;;;;;;;5009621;28;20021;-66
2023/05/12 01:42:31;;;;;;;6.97;3.20;;;;;;;;;;5010066;28;20029;-66
2023/05/12 01:44:56;;;;;;;6.05;2.95;;;;;;;;;;5011250;28;20026;-68
2023/05/12 01:47:21;;;;;;;6.90;3.10;;;;;;;;;;5009679;28;20486;-67
2023/05/12 01:49:47;;;;;;;6.95;3.10;;;;;;;;;;5009892;28;20034;-67
2023/05/12 01:52:12;;;;;;;8.83;3.10;;;;;;;;;;5006981;28;20022;-67
2023/05/12 01:54:37;;;;;;;6.33;3.33;;;;;;;;;;5011147;28;20520;-68
2023/05/12 01:57:02;;;;;;;6.20;2.97;;;;;;;;;;5010600;28;20022;-67
2023/05/12 01:59:27;;;;;;;6.20;3.10;;;;;;;;;;5009736;28;20499;-67
2023/05/12 02:01:52;;;;;;;6.90;3.17;;;;;;;;;;5008747;28;20889;-68
2023/05/12 02:04:18;;;;;;;5.78;2.92;;;;;;;;;;5009232;28;20425;-67
2023/05/12 02:06:43;;;;;;;6.80;3.53;;;;;;;;;;5009956;28;20026;-68
2023/05/12 02:09:08;;;;;;;5.57;2.90;;;;;;;;;;5009893;28;20817;-67
2023/05/12 02:11:33;;;;;;;6.53;3.40;;;;;;;;;;5010144;28;20018;-68
2023/05/12 02:13:58;;;;;;;6.32;3.13;;;;;;;;;;5008955;28;20030;-67
2023/05/12 02:16:23;;;;;;;5.75;3.20;;;;;;;;;;5009711;28;20280;-67
2023/05/12 02:18:49;;;;;;;5.57;3.20;;;;;;;;;;5009477;28;20034;-68
2023/05/12 02:21:14;;;;;;;7.00;3.30;;;;;;;;;;5007482;28;20049;-66
2023/05/12 02:23:39;;;;;;;6.87;3.47;;;;;;;;;;5010034;28;20025;-68
2023/05/12 02:26:04;;;;;;;8.13;3.40;;;;;;;;;;5010307;28;20113;-66
2023/05/12 02:28:29;;;;;;;7.13;3.30;;;;;;;;;;5008475;28;20033;-67
2023/05/12 02:30:55;;;;;;;8.83;3.37;;;;;;;;;;5009049;28;20041;-67
2023/05/12 02:33:21;;;;;;;7.00;3.37;;;;;;;;;;5010097;28;20041;-67
2023/05/12 02:35:46;;;;;;;7.55;3.47;;;;;;;;;;5008712;28;20083;-66
2023/05/12 02:38:12;;;;;;;6.47;3.03;;;;;;;;;;5008373;28;20022;-67
2023/05/12 02:40:37;;;;;;;7.38;3.20;;;;;;;;;;5009075;28;20041;-66
2023/05/12 02:43:02;;;;;;;6.30;3.00;;;;;;;;;;5010122;28;20025;-66
2023/05/12 02:45:27;;;;;;;6.43;3.00;;;;;;;;;;5010956;28;20030;-66
2023/05/12 02:47:53;;;;;;;7.00;3.28;;;;;;;;;;5009926;28;20389;-66
2023/05/12 02:50:19;;;;;;;9.07;3.47;;;;;;;;;;5006650;28;20949;-66
2023/05/12 02:52:44;;;;;;;8.75;3.58;;;;;;;;;;5009681;28;20458;-66
2023/05/12 02:55:09;;;;;;;7.93;3.10;;;;;;;;;;5009833;28;20058;-67
2023/05/12 02:57:34;;;;;;;7.22;3.45;;;;;;;;;;5009488;28;20026;-65
2023/05/12 03:00:00;;;;;;;6.40;3.20;;;;;;;;;;5010599;28;20550;-66
2023/05/12 03:02:26;;;;;;;8.13;3.20;;;;;;;;;;5010570;28;20037;-66
2023/05/12 03:04:51;;;;;;;7.77;3.20;;;;;;;;;;5010873;28;20022;-66
2023/05/12 03:07:16;;;;;;;7.00;3.28;;;;;;;;;;5009516;28;20549;-67
2023/05/12 03:09:41;;;;;;;8.10;3.58;;;;;;;;;;5016378;28;20025;-65
2023/05/12 03:12:06;;;;;;;6.73;3.37;;;;;;;;;;5013189;28;20038;-66
2023/05/12 03:14:32;;;;;;;7.40;3.30;;;;;;;;;;5005953;28;20013;-66
2023/05/12 03:16:57;;;;;;;7.73;3.37;;;;;;;;;;5011718;28;20022;-66
2023/05/12 03:19:22;;;;;;;6.60;3.08;;;;;;;;;;5009458;28;20026;-65
2023/05/12 03:21:47;;;;;;;6.70;3.50;;;;;;;;;;5011924;28;20036;-67
2023/05/12 03:24:13;;;;;;;7.40;3.30;;;;;;;;;;5011500;28;20034;-67
2023/05/12 03:26:38;;;;;;;6.63;3.60;;;;;;;;;;5013839;28;20028;-67
2023/05/12 03:29:03;;;;;;;6.53;3.22;;;;;;;;;;5012111;28;20075;-66
2023/05/12 03:31:28;;;;;;;6.47;3.25;;;;;;;;;;5013335;28;20045;-66
2023/05/12 03:33:53;;;;;;;5.90;3.15;;;;;;;;;;5011754;28;20335;-67
2023/05/12 03:36:18;;;;;;;5.77;3.17;;;;;;;;;;5008609;28;20029;-66
2023/05/12 03:38:44;;;;;;;6.60;3.40;;;;;;;;;;5017452;28;20009;-66
2023/05/12 03:41:09;;;;;;;7.07;3.30;;;;;;;;;;5011673;28;20509;-66
2023/05/12 03:43:34;;;;;;;6.03;3.10;;;;;;;;;;5019178;28;20022;-66
2023/05/12 03:45:59;;;;;;;9.60;3.28;;;;;;;;;;5019859;28;20037;-66
2023/05/12 03:48:25;;;;;;;7.00;3.55;;;;;;;;;;5013847;28;20566;-67
2023/05/12 03:50:50;;;;;;;7.27;3.10;;;;;;;;;;5013834;28;20085;-65
2023/05/12 03:53:15;;;;;;;5.77;2.83;;;;;;;;;;5014010;28;20025;-67
2023/05/12 03:55:40;;;;;;;5.72;3.03;;;;;;;;;;5010703;28;20021;-67
2023/05/12 03:58:06;;;;;;;6.05;2.60;;;;;;;;;;5001468;28;20065;-66
2023/05/12 04:00:31;;;;;;;5.90;3.20;;;;;;;;;;4996220;28;20516;-66
2023/05/12 04:02:56;;;;;;;8.13;3.95;;;;;;;;;;5003159;28;20032;-66
2023/05/12 04:05:22;;;;;;;7.65;4.00;;;;;;;;;;5006449;28;20026;-67
2023/05/12 04:07:47;;;;;;;10.13;3.67;;;;;;;;;;5012649;28;20034;-67
2023/05/12 04:10:12;;;;;;;7.37;3.70;;;;;;;;;;5011399;28;20052;-66
2023/05/12 04:12:38;;;;;;;8.23;3.53;;;;;;;;;;5012198;28;20024;-66
2023/05/12 04:15:03;;;;;;;8.88;3.80;;;;;;;;;;5007750;28;20062;-66
2023/05/12 04:17:28;;;;;;;7.53;3.20;;;;;;;;;;5014111;28;20061;-66
2023/05/12 04:19:54;;;;;;;6.57;3.20;;;;;;;;;;5017498;28;20014;-67
2023/05/12 04:22:19;;;;;;;5.73;3.20;;;;;;;;;;5005927;28;20032;-66
2023/05/12 04:24:44;;;;;;;5.67;3.07;;;;;;;;;;5010606;28;20038;-67
2023/05/12 04:27:09;;;;;;;8.77;3.80;;;;;;;;;;5006737;28;20033;-64
2023/05/12 04:29:35;;;;;;;6.87;3.40;;;;;;;;;;5006032;28;20017;-66
2023/05/12 04:32:00;;;;;;;9.18;3.90;;;;;;;;;;5004196;28;20648;-66
2023/05/12 04:34:25;;;;;;;6.70;3.30;;;;;;;;;;5008660;28;20137;-65
2023/05/12 04:36:50;;;;;;;6.17;3.23;;;;;;;;;;5004252;28;20026;-66
2023/05/12 04:39:15;;;;;;;7.68;3.50;;;;;;;;;;5004029;28;20132;-67
2023/05/12 04:41:40;;;;;;;8.65;3.42;;;;;;;;;;5002071;28;20056;-66
2023/05/12 04:44:06;;;;;;;6.40;3.38;;;;;;;;;;5002126;28;20481;-66
2023/05/12 04:46:31;;;;;;;7.33;3.63;;;;;;;;;;5007743;28;20042;-65
2023/05/12 04:48:56;;;;;;;8.90;3.70;;;;;;;;;;5007709;28;20034;-66
2023/05/12 04:51:21;;;;;;;7.65;3.75;;;;;;;;;;5006951;28;20069;-65
2023/05/12 04:53:46;;;;;;;8.73;4.13;;;;;;;;;;5001425;28;20666;-66
2023/05/12 04:56:11;;;;;;;9.68;4.05;;;;;;;;;;5003318;28;20018;-66
2023/05/12 04:58:37;;;;;;;7.40;3.65;;;;;;;;;;5005100;28;20032;-67
2023/05/12 05:01:02;;;;;;;8.65;3.83;;;;;;;;;;5006088;28;20026;-66
2023/05/12 05:03:27;;;;;;;10.80;3.50;;;;;;;;;;5004604;28;20703;-66
2023/05/12 05:05:52;;;;;;;7.97;3.73;;;;;;;;;;5009441;28;20037;-67
2023/05/12 05:08:17;;;;;;;8.77;3.55;;;;;;;;;;5005534;28;20048;-65
2023/05/12 05:10:43;;;;;;;7.17;3.70;;;;;;;;;;5006332;28;20022;-67
2023/05/12 05:13:08;;;;;;;7.00;3.50;;;;;;;;;;5004275;28;20513;-67
2023/05/12 05:15:33;;;;;;;6.38;3.72;;;;;;;;;;5006350;28;20084;-66
2023/05/12 05:17:58;;;;;;;7.88;4.13;;;;;;;;;;5007936;28;20371;-66
2023/05/12 05:20:24;;;;;;;6.70;3.50;;;;;;;;;;5010997;28;20026;-66
2023/05/12 05:22:49;;;;;;;8.70;4.18;;;;;;;;;;5010617;28;20026;-67
2023/05/12 05:25:14;;;;;;;6.43;3.55;;;;;;;;;;5010436;28;20053;-67
2023/05/12 05:27:39;;;;;;;6.93;3.80;;;;;;;;;;5009426;28;20389;-67
2023/05/12 05:30:08;;;;;;;9.35;4.10;;;;;;;;;;5010658;28;20599;-67
2023/05/12 05:32:33;;;;;;;8.23;4.00;;;;;;;;;;5010102;28;20061;-68
2023/05/12 05:34:59;;;;;;;9.32;4.15;;;;;;;;;;5012068;28;20503;-68
2023/05/12 05:37:24;;;;;;;8.50;3.90;;;;;;;;;;5011464;28;20024;-66
2023/05/12 05:39:49;;;;;;;7.28;4.07;;;;;;;;;;5011959;28;20030;-68
2023/05/12 05:42:15;;;;;;;10.07;4.55;;;;;;;;;;5011080;28;20079;-67
2023/05/12 05:44:40;;;;;;;10.88;3.83;;;;;;;;;;5012469;28;20034;-67
2023/05/12 05:47:05;;;;;;;9.97;4.17;;;;;;;;;;5006142;28;20767;-67
2023/05/12 05:49:30;;;;;;;7.50;3.73;;;;;;;;;;5010992;28;20034;-66
2023/05/12 05:51:55;;;;;;;8.73;3.65;;;;;;;;;;5012981;28;20022;-67
2023/05/12 05:54:24;;;;;;;12.40;4.30;;;;;;;;;;5010846;28;20033;-67
2023/05/12 05:56:49;;;;;;;10.82;3.83;;;;;;;;;;5010809;28;20109;-67
2023/05/12 05:59:14;;;;;;;8.18;4.30;;;;;;;;;;5014778;28;20049;-72
2023/05/12 06:01:39;;;;;;;11.50;4.68;;;;;;;;;;5009057;28;20029;-62
2023/05/12 06:04:05;;;;;;;11.53;3.97;;;;;;;;;;5011876;28;20033;-61
2023/05/12 06:06:30;;;;;;;7.65;3.80;;;;;;;;;;5012155;28;20018;-61
2023/05/12 06:08:55;;;;;;;12.10;4.10;;;;;;;;;;5011783;28;20021;-61
2023/05/12 06:11:20;;;;;;;10.15;4.18;;;;;;;;;;5008278;28;20479;-61
2023/05/12 06:13:46;;;;;;;9.88;4.25;;;;;;;;;;5011756;28;20029;-61
2023/05/12 06:16:11;;;;;;;8.70;3.83;;;;;;;;;;5010293;28;20034;-61
2023/05/12 06:18:36;;;;;;;9.80;4.30;;;;;;;;;;5011671;28;20028;-61
2023/05/12 06:21:03;;;;;;;8.88;4.18;;;;;;;;;;5010745;28;20077;-61
2023/05/12 06:23:28;;;;;;;10.55;4.00;;;;;;;;;;5010345;28;20018;-60
2023/05/12 06:25:54;;;;;;;9.02;3.92;;;;;;;;;;5010451;28;20037;-60
2023/05/12 06:28:19;;;;;;;9.13;4.57;;;;;;;;;;5009909;28;20057;-60
2023/05/12 06:30:44;;;;;;;9.03;3.87;;;;;;;;;;5008428;28;20437;-60
2023/05/12 06:33:09;;;;;;;11.73;4.10;;;;;;;;;;5009867;28;20076;-60
2023/05/12 06:35:35;;;;;;;8.00;4.03;;;;;;;;;;5009957;28;20030;-60
2023/05/12 06:38:00;;;;;;;9.68;4.35;;;;;;;;;;5008299;28;20444;-60
2023/05/12 06:40:25;;;;;;;10.70;4.00;;;;;;;;;;5008296;28;20045;-60
2023/05/12 06:42:50;;;;;;;8.60;4.03;;;;;;;;;;5006613;28;20908;-60
2023/05/12 06:45:15;;;;;;;7.53;3.70;;;;;;;;;;5006827;28;20784;-61
2023/05/12 06:47:40;;;;;;;8.70;4.10;;;;;;;;;;5010617;28;20022;-61
2023/05/12 06:50:07;;;;;;;9.85;3.55;;;;;;;;;;5006168;28;20079;-60
2023/05/12 06:52:32;;;;;;;10.77;3.70;;;;;;;;;;5008653;28;20025;-61
2023/05/12 06:54:57;;;;;;;8.13;3.83;;;;;;;;;;5008048;28;20068;-59
2023/05/12 06:57:22;;;;;;;5.82;3.22;;;;;;;;;;5009540;28;20083;-64
2023/05/12 06:59:47;;;;;;;10.38;3.90;;;;;;;;;;5004722;28;20477;-66
2023/05/12 07:02:12;;;;;;;6.68;3.70;;;;;;;;;;5009303;28;20084;-67
2023/05/12 07:04:38;;;;;;;8.57;3.72;;;;;;;;;;5011068;28;20072;-67
2023/05/12 07:07:03;;;;;;;7.75;3.70;;;;;;;;;;5015846;28;20026;-66
2023/05/12 07:09:28;;;;;;;8.97;4.00;;;;;;;;;;5013932;28;20108;-65
2023/05/12 07:11:53;;;;;;;6.90;3.33;;;;;;;;;;5010713;28;20136;-66
2023/05/12 07:14:18;;;;;;;8.40;3.80;;;;;;;;;;5007433;28;20052;-67
2023/05/12 07:16:44;;;;;;;8.03;3.40;;;;;;;;;;5010170;28;20037;-66
2023/05/12 07:19:09;;;;;;;9.18;3.55;;;;;;;;;;5010838;28;20018;-66
2023/05/12 07:21:35;;;;;;;6.70;3.47;;;;;;;;;;5010217;28;20096;-66
2023/05/12 07:24:00;;;;;;;8.00;3.38;;;;;;;;;;5010773;28;20386;-66
2023/05/12 07:26:27;;;;;;;7.43;3.22;;;;;;;;;;5011149;28;20080;-66
2023/05/12 07:28:52;;;;;;;8.65;3.28;;;;;;;;;;5009273;28;20025;-66
2023/05/12 07:31:17;;;;;;;8.03;3.60;;;;;;;;;;5010555;28;20034;-65
2023/05/12 07:33:42;;;;;;;9.50;3.65;;;;;;;;;;5010063;28;20022;-66
2023/05/12 07:36:08;;;;;;;7.10;3.00;;;;;;;;;;5010866;28;20018;-65
2023/05/12 07:38:33;;;;;;;7.10;3.50;;;;;;;;;;5010708;28;20030;-66
2023/05/12 07:40:59;;;;;;;7.15;3.20;;;;;;;;;;5006665;28;20018;-66
2023/05/12 07:43:24;;;;;;;9.13;4.10;;;;;;;;;;5010633;28;20021;-65
2023/05/12 07:45:49;;;;;;;6.50;3.50;;;;;;;;;;5010121;28;20053;-66
2023/05/12 07:48:14;;;;;;;6.25;3.30;;;;;;;;;;5010402;28;20029;-66
2023/05/12 07:50:39;;;;;;;8.68;2.95;;;;;;;;;;5009904;28;20029;-66
2023/05/12 07:53:05;;;;;;;7.03;2.53;;;;;;;;;;5010208;28;20444;-66
2023/05/12 07:55:34;;;;;;;7.57;3.05;;;;;;;;;;5005112;28;20014;-67
2023/05/12 07:57:59;;;;;;;4.88;2.58;;;;;;;;;;5007934;28;20379;-66
2023/05/12 08:00:25;;;;;;;5.60;2.72;;;;;;;;;;5009915;28;20029;-65
2023/05/12 08:02:50;;;;;;;6.37;2.63;;;;;;;;;;5010892;28;20029;-67
2023/05/12 08:05:15;;;;;;;5.53;2.43;;;;;;;;;;5010857;28;20021;-66
2023/05/12 08:07:42;;;;;;;7.97;3.10;;;;;;;;;;5010769;28;20021;-66
2023/05/12 08:10:07;;;;;;;6.57;2.83;;;;;;;;;;5011450;28;20056;-66
2023/05/12 08:12:33;;;;;;;6.43;2.80;;;;;;;;;;5018911;28;20013;-66
2023/05/12 08:14:58;;;;;;;8.77;2.53;;;;;;;;;;5019926;28;20053;-67
2023/05/12 08:17:23;;;;;;;8.40;2.78;;;;;;;;;;5015035;28;20037;-66
2023/05/12 08:19:48;;;;;;;6.10;2.97;;;;;;;;;;5014196;28;20497;-66
2023/05/12 08:22:13;;;;;;;6.78;2.80;;;;;;;;;;5013413;28;20040;-66
2023/05/12 08:24:39;;;;;;;5.63;2.73;;;;;;;;;;5014155;28;20029;-66
2023/05/12 08:27:04;;;;;;;7.90;2.90;;;;;;;;;;5012055;28;20029;-66
2023/05/12 08:29:29;;;;;;;6.27;2.87;;;;;;;;;;5011983;28;20184;-67
2023/05/12 08:31:54;;;;;;;8.73;2.90;;;;;;;;;;5011763;28;20476;-66
2023/05/12 08:34:19;;;;;;;6.70;2.97;;;;;;;;;;5013810;28;20022;-66
2023/05/12 08:36:45;;;;;;;6.03;2.77;;;;;;;;;;5008188;28;20021;-66
2023/05/12 08:39:10;;;;;;;7.70;2.67;;;;;;;;;;5012365;28;20022;-66
2023/05/12 08:41:50;;;;;;;5.67;2.80;;;;;;;;;;5013609;28;20024;-66
2023/05/12 08:44:17;;;;;;;8.82;2.85;;;;;;;;;;5013776;28;20064;-66
2023/05/12 08:46:42;;;;;;;5.43;2.50;;;;;;;;;;5013657;28;20017;-66
2023/05/12 08:49:14;;;;;;;5.80;2.70;;;;;;;;;;5008906;28;20028;-66
2023/05/12 08:51:40;;;;;;;6.38;2.78;;;;;;;;;;5008252;28;20041;-66
2023/05/12 08:54:07;;;;;;;6.32;2.47;;;;;;;;;;5011953;28;20026;-66
2023/05/12 08:56:32;;;;;;;6.10;2.30;;;;;;;;;;5011640;28;20099;-66
2023/05/12 08:58:57;;;;;;;6.10;2.10;;;;;;;;;;5008985;28;20114;-66
2023/05/12 09:01:23;;;;;;;7.20;2.40;;;;;;;;;;5011638;28;20053;-66
2023/05/12 09:03:50;;;;;;;5.07;2.50;;;;;;;;;;5010672;28;20068;-66
2023/05/12 09:06:15;;;;;;;4.85;2.20;;;;;;;;;;5009280;28;20030;-66
2023/05/12 09:08:40;;;;;;;7.15;2.30;;;;;;;;;;5012551;28;20037;-66
2023/05/12 09:11:09;;;;;;;4.90;2.45;;;;;;;;;;5012837;28;20029;-66
2023/05/12 09:13:39;;;;;;;5.88;2.50;;;;;;;;;;5012302;28;20032;-66
2023/05/12 09:16:06;;;;;;;7.60;2.50;;;;;;;;;;5013246;28;20593;-66
2023/05/12 09:18:43;;;;;;;5.82;2.53;;;;;;;;;;5012897;28;20025;-66
2023/05/12 09:21:08;;;;;;;7.03;2.63;;;;;;;;;;5011477;28;20055;-66
2023/05/12 09:23:33;;;;;;;4.80;2.33;;;;;;;;;;5012519;28;20018;-65
2023/05/12 09:26:00;;;;;;;6.68;2.42;;;;;;;;;;5010953;28;20180;-66
2023/05/12 09:28:33;;;;;;;6.57;2.30;;;;;;;;;;5011916;28;20152;-67
2023/05/12 09:30:58;;;;;;;6.13;2.70;;;;;;;;;;5012086;28;20116;-66
2023/05/12 09:33:24;;;;;;;6.67;2.40;;;;;;;;;;5012703;28;20597;-67
2023/05/12 09:35:49;;;;;;;;;;;;;;;;;;5011835;28;20416;-67
2023/05/12 09:38:14;;;;;;;4.03;1.92;;;;;;;;;;5012167;28;19905;-67
2023/05/12 09:40:39;;;;;;;5.20;2.30;;;;;;;;;;5008800;28;20034;-66
2023/05/12 09:43:05;;;;;;;5.65;2.60;;;;;;;;;;5011873;28;20030;-67
2023/05/12 09:45:37;;;;;;;6.90;2.10;;;;;;;;;;5010093;28;20060;-67
2023/05/12 09:48:10;;;;;;;6.18;2.40;;;;;;;;;;5010805;28;20037;-67
2023/05/12 09:50:43;;;;;;;5.93;2.08;;;;;;;;;;5010889;28;20026;-67
2023/05/12 09:53:08;;;;;;;4.88;2.28;;;;;;;;;;5012043;28;20485;-65
2023/05/12 09:55:33;;;;;;;4.53;2.20;;;;;;;;;;5012157;28;20025;-67
2023/05/12 09:58:00;;;;;;;6.22;2.45;;;;;;;;;;5015188;28;20033;-66
2023/05/12 10:00:25;;;;;;;4.40;1.65;;;;;;;;;;5009985;28;20029;-67
2023/05/12 10:02:50;;;;;;;7.03;1.80;;;;;;;;;;5003166;28;20113;-66
2023/05/12 10:05:18;;;;;;;5.07;1.65;;;;;;;;;;5009839;28;20025;-67
2023/05/12 10:07:45;;;;;;;4.10;1.77;;;;;;;;;;5010481;28;20037;-66
2023/05/12 10:10:10;;;;;;;4.78;1.90;;;;;;;;;;5011935;28;20041;-67
2023/05/12 10:12:36;;;;;;;5.57;1.92;;;;;;;;;;5011388;28;20029;-66
2023/05/12 10:15:01;;;;;;;4.32;2.08;;;;;;;;;;5011851;28;20033;-67
2023/05/12 10:17:27;;;;;;;4.88;1.80;;;;;;;;;;5009906;28;20470;-66
2023/05/12 10:19:53;;;;;;;4.57;2.00;;;;;;;;;;5011624;28;20026;-67
2023/05/12 10:22:18;;;;;;;5.15;2.00;;;;;;;;;;5011384;28;20018;-66
2023/05/12 10:24:44;;;;;;;5.05;2.10;;;;;;;;;;5011942;28;20030;-66
2023/05/12 10:27:10;;;;;;;4.88;2.00;;;;;;;;;;5011610;28;20018;-66
2023/05/12 10:29:36;;;;;;;4.50;2.00;;;;;;;;;;5011883;28;20029;-65
2023/05/12 10:32:01;;;;;;;5.20;1.92;;;;;;;;;;5009766;28;20026;-66
2023/05/12 10:34:31;;;;;;;4.77;1.80;;;;;;;;;;5010508;28;20510;-66
2023/05/12 10:36:57;;;;;;;5.78;2.00;;;;;;;;;;5011806;28;20411;-67
2023/05/12 10:39:29;;;;;;;4.45;2.00;;;;;;;;;;5011529;28;20532;-67
2023/05/12 10:42:23;;;;;;;5.03;2.08;;;;;;;;;;5010968;28;20041;-66
2023/05/12 10:44:50;;;;;;;5.90;2.00;;;;;;;;;;5009951;28;20044;-66
2023/05/12 10:47:16;;;;;;;5.72;2.28;;;;;;;;;;5008820;28;20057;-66
2023/05/12 10:49:41;;;;;;;6.72;2.22;;;;;;;;;;5011493;28;20488;-66
2023/05/12 10:52:09;;;;;;;5.75;2.30;;;;;;;;;;5008417;28;20025;-65
2023/05/12 10:54:39;;;;;;;6.97;2.33;;;;;;;;;;5011340;28;20037;-66
2023/05/12 10:57:12;;;;;;;4.50;2.10;;;;;;;;;;5012159;28;20025;-66
2023/05/12 10:59:46;;;;;;;5.55;2.00;;;;;;;;;;5010856;28;20026;-66
2023/05/12 11:02:14;;;;;;;5.72;2.20;;;;;;;;;;5007953;28;20196;-65
2023/05/12 11:04:50;;;;;;;6.20;2.40;;;;;;;;;;5003146;28;20037;-65
2023/05/12 11:07:19;;;;;;;5.32;2.15;;;;;;;;;;5011508;28;20022;-64
2023/05/12 11:09:45;;;;;;;5.05;2.17;;;;;;;;;;5011649;28;20037;-65
2023/05/12 11:12:10;;;;;;;;;;;;;;;;;;5010478;28;20022;-65
2023/05/12 11:14:36;;;;;;;6.00;2.42;;;;;;;;;;5011630;28;19921;-64
2023/05/12 11:17:01;;;;;;;4.55;2.20;;;;;;;;;;5009754;28;20081;-65
2023/05/12 11:19:27;;;;;;;5.93;2.20;;;;;;;;;;5010769;28;20088;-66
2023/05/12 11:21:52;;;;;;;5.43;2.00;;;;;;;;;;5010694;28;20078;-66
2023/05/12 11:24:18;;;;;;;5.65;2.42;;;;;;;;;;5011049;28;20030;-65
2023/05/12 11:26:44;;;;;;;4.90;2.38;;;;;;;;;;5008707;28;20101;-66
2023/05/12 11:29:09;;;;;;;7.03;2.63;;;;;;;;;;5010817;28;20105;-66
2023/05/12 11:31:34;;;;;;;5.23;2.40;;;;;;;;;;5006268;28;20595;-64
2023/05/12 11:34:03;;;;;;;4.72;2.30;;;;;;;;;;5008002;28;20032;-64
2023/05/12 11:36:34;;;;;;;7.93;3.13;;;;;;;;;;5009909;28;20029;-65
2023/05/12 11:38:59;;;;;;;10.25;3.60;;;;;;;;;;5010506;28;20097;-65
2023/05/12 11:41:25;;;;;;;7.57;3.50;;;;;;;;;;5010268;28;20700;-64
2023/05/12 11:43:50;;;;;;;7.88;3.72;;;;;;;;;;5010583;28;20044;-67
2023/05/12 11:46:26;;;;;;;7.43;3.13;;;;;;;;;;5011050;28;20034;-63
2023/05/12 11:48:55;;;;;;;7.55;3.10;;;;;;;;;;5013589;28;20034;-67
2023/05/12 11:51:20;;;;;;;8.63;3.70;;;;;;;;;;5006100;28;20473;-67
2023/05/12 11:53:45;;;;;;;9.23;3.55;;;;;;;;;;5014516;28;20026;-66
2023/05/12 11:56:16;;;;;;;5.83;2.90;;;;;;;;;;5014475;28;20030;-66
2023/05/12 11:58:50;;;;;;;7.18;3.15;;;;;;;;;;5014477;28;20029;-65
2023/05/12 12:01:15;;;;;;;7.53;3.17;;;;;;;;;;5011857;28;20028;-66
2023/05/12 12:03:47;;;;;;;6.75;2.95;;;;;;;;;;5012993;28;20021;-66
2023/05/12 12:06:13;;;;;;;5.43;2.65;;;;;;;;;;5013921;28;20109;-66
2023/05/12 12:08:47;;;;;;;6.28;2.60;;;;;;;;;;5009555;28;20153;-64
2023/05/12 12:11:13;;;;;;;6.32;2.72;;;;;;;;;;5014063;28;20022;-66
2023/05/12 12:13:46;;;;;;;5.47;2.60;;;;;;;;;;5014162;28;20021;-66
2023/05/12 12:16:11;;;;;;;7.95;2.70;;;;;;;;;;5011198;28;20088;-66
2023/05/12 12:18:36;;;;;;;6.70;2.90;;;;;;;;;;5012286;28;20501;-66
2023/05/12 12:21:01;;;;;;;6.80;3.15;;;;;;;;;;5013074;28;20082;-66
2023/05/12 12:23:26;;;;;;;7.73;3.33;;;;;;;;;;5013941;28;20022;-65
2023/05/12 12:25:51;;;;;;;7.27;3.40;;;;;;;;;;5013621;28;20030;-66
2023/05/12 12:28:17;;;;;;;9.57;3.70;;;;;;;;;;5013209;28;20437;-65
2023/05/12 12:30:42;;;;;;;10.27;3.60;;;;;;;;;;5011912;28;20366;-66
2023/05/12 12:33:07;;;;;;;7.35;3.03;;;;;;;;;;5011636;28;20025;-66
2023/05/12 12:35:32;;;;;;;7.75;3.65;;;;;;;;;;5013191;28;20133;-67
2023/05/12 12:37:59;;;;;;;7.38;3.25;;;;;;;;;;5013597;28;20111;-66
2023/05/12 12:40:24;;;;;;;8.07;3.50;;;;;;;;;;5013569;28;20045;-66
2023/05/12 12:42:49;;;;;;;7.88;3.22;;;;;;;;;;5013141;28;20021;-66
2023/05/12 12:45:14;;;;;;;8.80;3.72;;;;;;;;;;5014557;28;20045;-65
2023/05/12 12:47:39;;;;;;;6.30;2.50;;;;;;;;;;5015978;28;20486;-65
2023/05/12 12:50:06;;;;;;;5.50;2.90;;;;;;;;;;5016641;28;20448;-66
2023/05/12 12:52:31;;;;;;;6.40;2.65;;;;;;;;;;5012855;28;20028;-66
2023/05/12 12:54:56;;;;;;;6.40;3.20;;;;;;;;;;5013129;28;20017;-67
2023/05/12 12:57:22;;;;;;;6.87;3.03;;;;;;;;;;5011045;28;20018;-66
2023/05/12 12:59:47;;;;;;;7.73;2.90;;;;;;;;;;5012403;28;20955;-64
2023/05/12 13:02:13;;;;;;;6.88;3.30;;;;;;;;;;5012249;28;20095;-67
2023/05/12 13:04:38;;;;;;;7.17;3.10;;;;;;;;;;5012582;28;20083;-67
2023/05/12 13:07:04;;;;;;;7.07;2.60;;;;;;;;;;5012834;28;20018;-67
2023/05/12 13:09:29;;;;;;;6.57;2.70;;;;;;;;;;5013307;28;20046;-67
2023/05/12 13:11:54;;;;;;;6.43;3.38;;;;;;;;;;5007299;28;20429;-66
2023/05/12 13:14:20;;;;;;;9.87;3.80;;;;;;;;;;5011045;28;20061;-67
2023/05/12 13:16:45;;;;;;;7.63;3.55;;;;;;;;;;5012705;28;20028;-67
2023/05/12 13:19:10;;;;;;;9.15;4.03;;;;;;;;;;5012180;28;20014;-67
2023/05/12 13:21:36;;;;;;;6.17;3.10;;;;;;;;;;5012444;28;20022;-66
2023/05/12 13:24:01;;;;;;;7.90;3.08;;;;;;;;;;5012144;28;20454;-65
2023/05/12 13:26:27;;;;;;;7.73;3.60;;;;;;;;;;5011621;28;20030;-67
2023/05/12 13:28:52;;;;;;;8.13;3.73;;;;;;;;;;5012461;28;20030;-65
2023/05/12 13:31:17;;;;;;;6.90;3.38;;;;;;;;;;5012488;28;20022;-67
2023/05/12 13:33:42;;;;;;;7.00;3.25;;;;;;;;;;5011955;28;20056;-67
2023/05/12 13:36:07;;;;;;;6.93;3.33;;;;;;;;;;5011721;28;20025;-67
2023/05/12 13:38:33;;;;;;;6.37;3.43;;;;;;;;;;5011794;28;20470;-67
2023/05/12 13:40:58;;;;;;;6.80;3.13;;;;;;;;;;5006233;28;20053;-67
2023/05/12 13:43:23;;;;;;;9.37;3.33;;;;;;;;;;5005564;28;20025;-67
2023/05/12 13:45:48;;;;;;;7.53;3.10;;;;;;;;;;5005061;28;20784;-63
2023/05/12 13:48:13;;;;;;;6.63;3.10;;;;;;;;;;5004439;28;20096;-68
2023/05/12 13:50:38;;;;;;;7.55;3.17;;;;;;;;;;5005297;28;20030;-65
2023/05/12 13:53:04;;;;;;;6.20;3.22;;;;;;;;;;5003394;28;20048;-66
2023/05/12 13:55:30;;;;;;;6.67;3.37;;;;;;;;;;5007932;28;20029;-66
2023/05/12 13:57:55;;;;;;;9.95;4.43;;;;;;;;;;5006575;28;20105;-66
2023/05/12 14:00:20;;;;;;;7.20;3.20;;;;;;;;;;5006752;28;20128;-63
2023/05/12 14:02:46;;;;;;;9.57;3.40;;;;;;;;;;5006142;28;20033;-65
2023/05/12 14:05:11;;;;;;;8.87;3.47;;;;;;;;;;5004879;28;20530;-65
2023/05/12 14:07:36;;;;;;;6.80;3.45;;;;;;;;;;5006835;28;20050;-66
2023/05/12 14:10:02;;;;;;;9.00;3.63;;;;;;;;;;5005924;28;20046;-66
2023/05/12 14:12:28;;;;;;;8.13;3.38;;;;;;;;;;4999217;28;20030;-65
2023/05/12 14:14:53;;;;;;;9.87;3.50;;;;;;;;;;5001058;28;20017;-65
2023/05/12 14:17:18;;;;;;;7.07;2.97;;;;;;;;;;5004204;28;20152;-66
2023/05/12 14:19:43;;;;;;;9.23;2.70;;;;;;;;;;5005908;28;20033;-67
2023/05/12 14:22:09;;;;;;;7.30;2.20;;;;;;;;;;5005059;28;20029;-67
2023/05/12 14:24:34;;;;;;;5.30;2.37;;;;;;;;;;5008255;28;20040;-63
2023/05/12 14:26:59;;;;;;;6.60;2.23;;;;;;;;;;5010814;28;20025;-67
2023/05/12 14:29:24;;;;;;;6.28;2.22;;;;;;;;;;5011796;28;20117;-66
2023/05/12 14:31:50;;;;;;;5.97;2.40;;;;;;;;;;5008338;28;20038;-66
2023/05/12 14:34:15;;;;;;;6.07;2.42;;;;;;;;;;5008469;28;20037;-65